sensor_id;sensor_type;location;lat;lon;timestamp;P1;durP1;ratioP1;P2;durP2;ratioP2
55756;SDS011;41676;44.610;44.078;2023-03-13T00:00:37;28.98;;;15.80;;
55756;SDS011;41676;44.610;44.078;2023-03-13T00:05:38;26.45;;;15.05;;
55756;SDS011;41676;44.610;44.078;2023-03-13T00:10:39;26.23;;;13.50;;
55756;SDS011;41676;44.610;44.078;2023-03-13T00:15:40;23.67;;;15.07;;
55756;SDS011;41676;44.610;44.078;2023-03-13T00:20:41;23.05;;;15.77;;
55756;SDS011;41676;44.610;44.078;2023-03-13T00:25:42;18.50;;;14.20;;
55756;SDS011;41676;44.610;44.078;2023-03-13T00:30:42;23.10;;;15.25;;
55756;SDS011;41676;44.610;44.078;2023-03-13T00:35:43;25.52;;;17.05;;
55756;SDS011;41676;44.610;44.078;2023-03-13T00:40:44;24.75;;;16.20;;
55756;SDS011;41676;44.610;44.078;2023-03-13T00:45:44;25.33;;;15.38;;
55756;SDS011;41676;44.610;44.078;2023-03-13T00:50:45;25.48;;;16.13;;
55756;SDS011;41676;44.610;44.078;2023-03-13T01:00:55;22.23;;;15.57;;
55756;SDS011;41676;44.610;44.078;2023-03-13T01:05:57;26.83;;;14.98;;
55756;SDS011;41676;44.610;44.078;2023-03-13T01:10:59;26.55;;;17.05;;
55756;SDS011;41676;44.610;44.078;2023-03-13T01:16:12;29.80;;;18.58;;
55756;SDS011;41676;44.610;44.078;2023-03-13T01:21:14;26.27;;;16.40;;
55756;SDS011;41676;44.610;44.078;2023-03-13T01:26:18;32.00;;;18.23;;
55756;SDS011;41676;44.610;44.078;2023-03-13T01:31:20;32.83;;;19.70;;
55756;SDS011;41676;44.610;44.078;2023-03-13T01:36:23;26.42;;;15.32;;
55756;SDS011;41676;44.610;44.078;2023-03-13T01:41:25;28.38;;;17.85;;
55756;SDS011;41676;44.610;44.078;2023-03-13T01:46:28;23.88;;;15.93;;
55756;SDS011;41676;44.610;44.078;2023-03-13T01:51:38;26.45;;;15.88;;
55756;SDS011;41676;44.610;44.078;2023-03-13T01:56:47;27.95;;;17.63;;
55756;SDS011;41676;44.610;44.078;2023-03-13T02:02:01;26.83;;;16.80;;
55756;SDS011;41676;44.610;44.078;2023-03-13T02:07:06;27.13;;;16.58;;
55756;SDS011;41676;44.610;44.078;2023-03-13T02:12:16;29.75;;;15.98;;
55756;SDS011;41676;44.610;44.078;2023-03-13T02:17:21;24.20;;;15.65;;
55756;SDS011;41676;44.610;44.078;2023-03-13T02:22:26;21.48;;;15.63;;
55756;SDS011;41676;44.610;44.078;2023-03-13T02:27:46;23.17;;;14.33;;
55756;SDS011;41676;44.610;44.078;2023-03-13T02:32:47;21.60;;;14.23;;
55756;SDS011;41676;44.610;44.078;2023-03-13T02:37:52;28.13;;;16.40;;
55756;SDS011;41676;44.610;44.078;2023-03-13T02:43:16;25.50;;;16.25;;
55756;SDS011;41676;44.610;44.078;2023-03-13T02:48:30;31.77;;;17.98;;
55756;SDS011;41676;44.610;44.078;2023-03-13T02:53:32;35.53;;;18.45;;
55756;SDS011;41676;44.610;44.078;2023-03-13T02:58:37;32.08;;;17.70;;
55756;SDS011;41676;44.610;44.078;2023-03-13T03:03:38;37.25;;;16.58;;
55756;SDS011;41676;44.610;44.078;2023-03-13T03:08:39;31.38;;;16.10;;
55756;SDS011;41676;44.610;44.078;2023-03-13T03:13:42;24.70;;;15.85;;
55756;SDS011;41676;44.610;44.078;2023-03-13T03:18:43;27.35;;;15.32;;
55756;SDS011;41676;44.610;44.078;2023-03-13T03:23:44;22.92;;;14.55;;
55756;SDS011;41676;44.610;44.078;2023-03-13T03:28:45;26.80;;;14.38;;
55756;SDS011;41676;44.610;44.078;2023-03-13T03:33:46;20.00;;;14.68;;
55756;SDS011;41676;44.610;44.078;2023-03-13T03:38:47;22.02;;;13.65;;
55756;SDS011;41676;44.610;44.078;2023-03-13T03:43:49;20.17;;;12.93;;
55756;SDS011;41676;44.610;44.078;2023-03-13T03:48:49;17.95;;;12.25;;
55756;SDS011;41676;44.610;44.078;2023-03-13T03:53:50;21.75;;;13.05;;
55756;SDS011;41676;44.610;44.078;2023-03-13T03:58:51;20.88;;;13.07;;
55756;SDS011;41676;44.610;44.078;2023-03-13T04:03:52;21.30;;;13.65;;
55756;SDS011;41676;44.610;44.078;2023-03-13T04:08:52;23.83;;;14.20;;
55756;SDS011;41676;44.610;44.078;2023-03-13T04:13:54;17.58;;;11.55;;
55756;SDS011;41676;44.610;44.078;2023-03-13T04:18:55;19.13;;;12.20;;
55756;SDS011;41676;44.610;44.078;2023-03-13T04:23:56;18.20;;;12.02;;
55756;SDS011;41676;44.610;44.078;2023-03-13T04:28:57;14.32;;;10.57;;
55756;SDS011;41676;44.610;44.078;2023-03-13T04:33:57;15.82;;;11.40;;
55756;SDS011;41676;44.610;44.078;2023-03-13T04:38:58;22.17;;;11.25;;
55756;SDS011;41676;44.610;44.078;2023-03-13T04:43:59;16.73;;;10.00;;
55756;SDS011;41676;44.610;44.078;2023-03-13T04:49:00;19.10;;;11.60;;
55756;SDS011;41676;44.610;44.078;2023-03-13T04:54:01;15.90;;;10.43;;
55756;SDS011;41676;44.610;44.078;2023-03-13T04:59:02;22.13;;;10.73;;
55756;SDS011;41676;44.610;44.078;2023-03-13T05:04:03;20.02;;;11.60;;
55756;SDS011;41676;44.610;44.078;2023-03-13T05:09:04;21.77;;;10.75;;
55756;SDS011;41676;44.610;44.078;2023-03-13T05:14:06;10.13;;;7.55;;
55756;SDS011;41676;44.610;44.078;2023-03-13T05:19:08;13.15;;;7.68;;
55756;SDS011;41676;44.610;44.078;2023-03-13T05:24:09;8.82;;;7.40;;
55756;SDS011;41676;44.610;44.078;2023-03-13T05:29:10;10.23;;;8.30;;
55756;SDS011;41676;44.610;44.078;2023-03-13T05:34:10;11.00;;;8.77;;
55756;SDS011;41676;44.610;44.078;2023-03-13T05:39:11;12.70;;;9.38;;
55756;SDS011;41676;44.610;44.078;2023-03-13T05:44:12;10.32;;;7.60;;
55756;SDS011;41676;44.610;44.078;2023-03-13T05:49:12;21.40;;;13.20;;
55756;SDS011;41676;44.610;44.078;2023-03-13T05:54:13;17.13;;;10.55;;
55756;SDS011;41676;44.610;44.078;2023-03-13T05:59:14;15.48;;;8.73;;
55756;SDS011;41676;44.610;44.078;2023-03-13T06:04:15;11.07;;;8.20;;
55756;SDS011;41676;44.610;44.078;2023-03-13T06:09:16;10.60;;;7.45;;
55756;SDS011;41676;44.610;44.078;2023-03-13T06:14:16;11.15;;;6.70;;
55756;SDS011;41676;44.610;44.078;2023-03-13T06:19:17;6.80;;;5.00;;
55756;SDS011;41676;44.610;44.078;2023-03-13T06:24:18;5.85;;;3.75;;
55756;SDS011;41676;44.610;44.078;2023-03-13T06:29:19;9.38;;;4.00;;
55756;SDS011;41676;44.610;44.078;2023-03-13T06:34:20;5.70;;;4.78;;
55756;SDS011;41676;44.610;44.078;2023-03-13T06:39:20;7.05;;;4.55;;
55756;SDS011;41676;44.610;44.078;2023-03-13T06:44:21;6.05;;;4.30;;
55756;SDS011;41676;44.610;44.078;2023-03-13T06:49:22;7.60;;;4.88;;
55756;SDS011;41676;44.610;44.078;2023-03-13T06:54:23;9.00;;;5.50;;
55756;SDS011;41676;44.610;44.078;2023-03-13T06:59:24;8.13;;;5.22;;
55756;SDS011;41676;44.610;44.078;2023-03-13T07:04:24;8.50;;;5.25;;
55756;SDS011;41676;44.610;44.078;2023-03-13T07:09:25;7.07;;;5.72;;
55756;SDS011;41676;44.610;44.078;2023-03-13T07:14:26;8.93;;;7.63;;
55756;SDS011;41676;44.610;44.078;2023-03-13T07:19:27;15.10;;;12.25;;
55756;SDS011;41676;44.610;44.078;2023-03-13T07:24:27;18.50;;;14.70;;
55756;SDS011;41676;44.610;44.078;2023-03-13T07:29:28;19.83;;;14.88;;
55756;SDS011;41676;44.610;44.078;2023-03-13T07:34:29;17.08;;;15.27;;
55756;SDS011;41676;44.610;44.078;2023-03-13T07:39:30;19.77;;;17.60;;
55756;SDS011;41676;44.610;44.078;2023-03-13T07:44:30;20.52;;;16.90;;
55756;SDS011;41676;44.610;44.078;2023-03-13T07:49:31;21.33;;;18.90;;
55756;SDS011;41676;44.610;44.078;2023-03-13T07:54:32;22.30;;;19.30;;
55756;SDS011;41676;44.610;44.078;2023-03-13T07:59:33;27.65;;;21.40;;
55756;SDS011;41676;44.610;44.078;2023-03-13T08:04:34;25.35;;;21.70;;
55756;SDS011;41676;44.610;44.078;2023-03-13T08:09:34;31.02;;;23.55;;
55756;SDS011;41676;44.610;44.078;2023-03-13T08:14:35;29.10;;;24.58;;
55756;SDS011;41676;44.610;44.078;2023-03-13T08:19:36;30.75;;;25.80;;
55756;SDS011;41676;44.610;44.078;2023-03-13T08:24:37;34.63;;;26.27;;
55756;SDS011;41676;44.610;44.078;2023-03-13T08:29:38;26.45;;;20.63;;
55756;SDS011;41676;44.610;44.078;2023-03-13T08:34:39;19.40;;;15.68;;
55756;SDS011;41676;44.610;44.078;2023-03-13T08:39:39;20.77;;;13.63;;
55756;SDS011;41676;44.610;44.078;2023-03-13T08:44:40;15.43;;;12.43;;
55756;SDS011;41676;44.610;44.078;2023-03-13T08:49:41;13.68;;;11.68;;
55756;SDS011;41676;44.610;44.078;2023-03-13T08:54:42;13.10;;;11.05;;
55756;SDS011;41676;44.610;44.078;2023-03-13T08:59:43;11.38;;;9.77;;
55756;SDS011;41676;44.610;44.078;2023-03-13T09:04:43;13.32;;;11.93;;
55756;SDS011;41676;44.610;44.078;2023-03-13T09:09:44;12.45;;;9.65;;
55756;SDS011;41676;44.610;44.078;2023-03-13T09:14:45;10.02;;;7.90;;
55756;SDS011;41676;44.610;44.078;2023-03-13T09:19:47;11.27;;;8.90;;
55756;SDS011;41676;44.610;44.078;2023-03-13T09:24:48;8.93;;;7.53;;
55756;SDS011;41676;44.610;44.078;2023-03-13T09:29:48;8.30;;;6.57;;
55756;SDS011;41676;44.610;44.078;2023-03-13T09:34:49;9.43;;;5.85;;
55756;SDS011;41676;44.610;44.078;2023-03-13T09:39:50;8.27;;;6.55;;
55756;SDS011;41676;44.610;44.078;2023-03-13T09:45:11;9.32;;;7.00;;
55756;SDS011;41676;44.610;44.078;2023-03-13T09:50:18;7.88;;;5.97;;
55756;SDS011;41676;44.610;44.078;2023-03-13T09:55:28;6.72;;;5.80;;
55756;SDS011;41676;44.610;44.078;2023-03-13T10:00:36;8.40;;;6.05;;
55756;SDS011;41676;44.610;44.078;2023-03-13T10:05:42;7.93;;;6.25;;
55756;SDS011;41676;44.610;44.078;2023-03-13T10:10:56;7.68;;;6.32;;
55756;SDS011;41676;44.610;44.078;2023-03-13T10:16:13;8.80;;;6.43;;
55756;SDS011;41676;44.610;44.078;2023-03-13T10:21:20;6.63;;;5.78;;
55756;SDS011;41676;44.610;44.078;2023-03-13T10:26:26;7.45;;;5.22;;
55756;SDS011;41676;44.610;44.078;2023-03-13T10:31:30;5.80;;;5.00;;
55756;SDS011;41676;44.610;44.078;2023-03-13T10:36:39;6.03;;;5.25;;
55756;SDS011;41676;44.610;44.078;2023-03-13T10:41:43;6.93;;;5.75;;
55756;SDS011;41676;44.610;44.078;2023-03-13T10:46:44;9.75;;;6.65;;
55756;SDS011;41676;44.610;44.078;2023-03-13T10:51:51;10.70;;;7.32;;
55756;SDS011;41676;44.610;44.078;2023-03-13T10:57:41;7.10;;;5.30;;
55756;SDS011;41676;44.610;44.078;2023-03-13T11:07:31;4.80;;;3.72;;
55756;SDS011;41676;44.610;44.078;2023-03-13T11:12:33;4.18;;;3.40;;
55756;SDS011;41676;44.610;44.078;2023-03-13T11:17:38;4.63;;;3.47;;
55756;SDS011;41676;44.610;44.078;2023-03-13T11:28:13;5.00;;;3.85;;
55756;SDS011;41676;44.610;44.078;2023-03-13T11:43:58;7.88;;;5.82;;
55756;SDS011;41676;44.610;44.078;2023-03-13T12:05:19;5.82;;;4.38;;
55756;SDS011;41676;44.610;44.078;2023-03-13T12:10:22;5.55;;;4.07;;
55756;SDS011;41676;44.610;44.078;2023-03-13T12:15:41;5.30;;;3.83;;
55756;SDS011;41676;44.610;44.078;2023-03-13T12:20:48;6.78;;;5.00;;
55756;SDS011;41676;44.610;44.078;2023-03-13T12:31:18;5.70;;;4.45;;
55756;SDS011;41676;44.610;44.078;2023-03-13T12:36:29;5.00;;;3.80;;
55756;SDS011;41676;44.610;44.078;2023-03-13T12:41:37;5.05;;;3.20;;
55756;SDS011;41676;44.610;44.078;2023-03-13T13:08:21;9.93;;;5.20;;
55756;SDS011;41676;44.610;44.078;2023-03-13T13:13:28;5.43;;;4.10;;
55756;SDS011;41676;44.610;44.078;2023-03-13T13:18:33;5.15;;;3.40;;
55756;SDS011;41676;44.610;44.078;2023-03-13T13:23:35;5.82;;;3.63;;
55756;SDS011;41676;44.610;44.078;2023-03-13T13:28:38;4.40;;;2.33;;
55756;SDS011;41676;44.610;44.078;2023-03-13T13:33:38;3.83;;;2.50;;
55756;SDS011;41676;44.610;44.078;2023-03-13T13:38:40;4.32;;;2.60;;
55756;SDS011;41676;44.610;44.078;2023-03-13T13:43:42;7.40;;;3.10;;
55756;SDS011;41676;44.610;44.078;2023-03-13T13:48:45;9.63;;;5.60;;
55756;SDS011;41676;44.610;44.078;2023-03-13T13:53:46;5.20;;;3.47;;
55756;SDS011;41676;44.610;44.078;2023-03-13T13:58:50;4.78;;;2.90;;
55756;SDS011;41676;44.610;44.078;2023-03-13T14:04:03;3.30;;;2.42;;
55756;SDS011;41676;44.610;44.078;2023-03-13T14:09:14;4.93;;;2.70;;
55756;SDS011;41676;44.610;44.078;2023-03-13T14:14:30;9.43;;;5.43;;
55756;SDS011;41676;44.610;44.078;2023-03-13T14:19:38;7.35;;;4.55;;
55756;SDS011;41676;44.610;44.078;2023-03-13T14:24:47;3.85;;;2.85;;
55756;SDS011;41676;44.610;44.078;2023-03-13T14:30:00;4.53;;;2.53;;
55756;SDS011;41676;44.610;44.078;2023-03-13T14:35:06;6.80;;;2.47;;
55756;SDS011;41676;44.610;44.078;2023-03-13T14:45:22;3.13;;;1.90;;
55756;SDS011;41676;44.610;44.078;2023-03-13T14:50:23;2.45;;;1.48;;
55756;SDS011;41676;44.610;44.078;2023-03-13T14:55:26;3.17;;;1.60;;
55756;SDS011;41676;44.610;44.078;2023-03-13T15:00:33;4.13;;;2.00;;
55756;SDS011;41676;44.610;44.078;2023-03-13T15:05:39;4.03;;;1.35;;
55756;SDS011;41676;44.610;44.078;2023-03-13T15:10:39;3.17;;;1.42;;
55756;SDS011;41676;44.610;44.078;2023-03-13T15:15:41;4.05;;;2.03;;
55756;SDS011;41676;44.610;44.078;2023-03-13T15:20:42;3.20;;;1.75;;
55756;SDS011;41676;44.610;44.078;2023-03-13T15:25:43;2.42;;;1.38;;
55756;SDS011;41676;44.610;44.078;2023-03-13T15:30:44;2.70;;;1.73;;
55756;SDS011;41676;44.610;44.078;2023-03-13T15:35:49;3.90;;;1.83;;
55756;SDS011;41676;44.610;44.078;2023-03-13T15:40:50;6.85;;;1.75;;
55756;SDS011;41676;44.610;44.078;2023-03-13T15:45:51;4.13;;;2.25;;
55756;SDS011;41676;44.610;44.078;2023-03-13T15:50:53;3.58;;;2.03;;
55756;SDS011;41676;44.610;44.078;2023-03-13T15:55:58;3.40;;;2.00;;
55756;SDS011;41676;44.610;44.078;2023-03-13T16:01:00;4.35;;;2.22;;
55756;SDS011;41676;44.610;44.078;2023-03-13T16:06:01;3.72;;;2.08;;
55756;SDS011;41676;44.610;44.078;2023-03-13T16:11:02;3.08;;;1.83;;
55756;SDS011;41676;44.610;44.078;2023-03-13T16:16:36;3.70;;;2.08;;
55756;SDS011;41676;44.610;44.078;2023-03-13T16:21:32;3.00;;;1.77;;
55756;SDS011;41676;44.610;44.078;2023-03-13T16:26:33;2.85;;;1.58;;
55756;SDS011;41676;44.610;44.078;2023-03-13T16:31:34;4.28;;;1.75;;
55756;SDS011;41676;44.610;44.078;2023-03-13T16:36:35;5.50;;;1.90;;
55756;SDS011;41676;44.610;44.078;2023-03-13T16:41:36;5.30;;;1.88;;
55756;SDS011;41676;44.610;44.078;2023-03-13T16:46:38;3.35;;;1.98;;
55756;SDS011;41676;44.610;44.078;2023-03-13T16:51:40;3.40;;;2.00;;
55756;SDS011;41676;44.610;44.078;2023-03-13T16:56:41;4.53;;;1.90;;
55756;SDS011;41676;44.610;44.078;2023-03-13T17:01:43;2.70;;;1.70;;
55756;SDS011;41676;44.610;44.078;2023-03-13T17:06:46;3.03;;;1.70;;
55756;SDS011;41676;44.610;44.078;2023-03-13T17:11:47;2.83;;;1.80;;
55756;SDS011;41676;44.610;44.078;2023-03-13T17:16:47;4.25;;;1.90;;
55756;SDS011;41676;44.610;44.078;2023-03-13T17:21:48;3.67;;;1.90;;
55756;SDS011;41676;44.610;44.078;2023-03-13T17:26:49;3.20;;;1.75;;
55756;SDS011;41676;44.610;44.078;2023-03-13T17:31:50;5.35;;;2.17;;
55756;SDS011;41676;44.610;44.078;2023-03-13T17:36:51;2.90;;;1.67;;
55756;SDS011;41676;44.610;44.078;2023-03-13T17:41:51;3.30;;;1.80;;
55756;SDS011;41676;44.610;44.078;2023-03-13T17:46:52;2.92;;;1.95;;
55756;SDS011;41676;44.610;44.078;2023-03-13T17:51:53;2.80;;;1.70;;
55756;SDS011;41676;44.610;44.078;2023-03-13T17:56:54;3.65;;;2.10;;
55756;SDS011;41676;44.610;44.078;2023-03-13T18:01:55;4.18;;;2.00;;
55756;SDS011;41676;44.610;44.078;2023-03-13T18:06:56;3.15;;;1.85;;
55756;SDS011;41676;44.610;44.078;2023-03-13T18:11:57;3.33;;;1.83;;
55756;SDS011;41676;44.610;44.078;2023-03-13T18:16:57;3.15;;;2.00;;
55756;SDS011;41676;44.610;44.078;2023-03-13T18:21:58;4.05;;;2.08;;
55756;SDS011;41676;44.610;44.078;2023-03-13T18:26:59;3.92;;;2.22;;
55756;SDS011;41676;44.610;44.078;2023-03-13T18:32:00;4.72;;;2.50;;
55756;SDS011;41676;44.610;44.078;2023-03-13T18:37:00;3.40;;;2.28;;
55756;SDS011;41676;44.610;44.078;2023-03-13T18:42:05;3.85;;;2.40;;
55756;SDS011;41676;44.610;44.078;2023-03-13T18:47:14;3.72;;;2.60;;
55756;SDS011;41676;44.610;44.078;2023-03-13T18:52:20;3.80;;;2.40;;
55756;SDS011;41676;44.610;44.078;2023-03-13T18:57:20;3.55;;;2.25;;
55756;SDS011;41676;44.610;44.078;2023-03-13T19:02:21;3.13;;;2.03;;
55756;SDS011;41676;44.610;44.078;2023-03-13T19:07:23;3.28;;;2.13;;
55756;SDS011;41676;44.610;44.078;2023-03-13T19:12:25;3.93;;;2.30;;
55756;SDS011;41676;44.610;44.078;2023-03-13T19:17:26;3.38;;;2.10;;
55756;SDS011;41676;44.610;44.078;2023-03-13T19:22:28;3.78;;;2.40;;
55756;SDS011;41676;44.610;44.078;2023-03-13T19:27:29;3.80;;;2.35;;
55756;SDS011;41676;44.610;44.078;2023-03-13T19:32:30;4.85;;;2.35;;
55756;SDS011;41676;44.610;44.078;2023-03-13T19:37:31;4.53;;;2.78;;
55756;SDS011;41676;44.610;44.078;2023-03-13T19:42:32;3.78;;;2.45;;
55756;SDS011;41676;44.610;44.078;2023-03-13T19:47:34;3.60;;;2.47;;
55756;SDS011;41676;44.610;44.078;2023-03-13T19:52:35;3.83;;;2.30;;
55756;SDS011;41676;44.610;44.078;2023-03-13T19:57:36;3.60;;;2.65;;
55756;SDS011;41676;44.610;44.078;2023-03-13T20:02:36;5.15;;;2.78;;
55756;SDS011;41676;44.610;44.078;2023-03-13T20:07:37;3.95;;;2.53;;
55756;SDS011;41676;44.610;44.078;2023-03-13T20:12:38;4.82;;;2.70;;
55756;SDS011;41676;44.610;44.078;2023-03-13T20:17:39;4.00;;;2.60;;
55756;SDS011;41676;44.610;44.078;2023-03-13T20:22:40;4.72;;;3.03;;
55756;SDS011;41676;44.610;44.078;2023-03-13T20:27:41;4.68;;;3.38;;
55756;SDS011;41676;44.610;44.078;2023-03-13T20:32:41;3.80;;;2.65;;
55756;SDS011;41676;44.610;44.078;2023-03-13T20:37:42;3.97;;;2.72;;
55756;SDS011;41676;44.610;44.078;2023-03-13T20:42:43;4.80;;;3.40;;
55756;SDS011;41676;44.610;44.078;2023-03-13T20:47:44;4.03;;;3.03;;
55756;SDS011;41676;44.610;44.078;2023-03-13T20:52:44;4.82;;;3.40;;
55756;SDS011;41676;44.610;44.078;2023-03-13T20:57:45;4.70;;;3.28;;
55756;SDS011;41676;44.610;44.078;2023-03-13T21:02:46;5.70;;;2.92;;
55756;SDS011;41676;44.610;44.078;2023-03-13T21:07:48;3.70;;;2.75;;
55756;SDS011;41676;44.610;44.078;2023-03-13T21:12:49;4.88;;;3.10;;
55756;SDS011;41676;44.610;44.078;2023-03-13T21:17:49;5.13;;;2.80;;
55756;SDS011;41676;44.610;44.078;2023-03-13T21:22:51;4.57;;;2.92;;
55756;SDS011;41676;44.610;44.078;2023-03-13T21:27:52;3.75;;;2.83;;
55756;SDS011;41676;44.610;44.078;2023-03-13T21:32:53;5.78;;;3.17;;
55756;SDS011;41676;44.610;44.078;2023-03-13T21:37:53;7.22;;;3.03;;
55756;SDS011;41676;44.610;44.078;2023-03-13T21:42:54;4.35;;;3.20;;
55756;SDS011;41676;44.610;44.078;2023-03-13T21:47:55;4.45;;;3.05;;
55756;SDS011;41676;44.610;44.078;2023-03-13T21:52:56;4.35;;;3.13;;
55756;SDS011;41676;44.610;44.078;2023-03-13T21:57:57;4.82;;;3.30;;
55756;SDS011;41676;44.610;44.078;2023-03-13T22:02:58;5.32;;;3.30;;
55756;SDS011;41676;44.610;44.078;2023-03-13T22:07:58;4.53;;;3.25;;
55756;SDS011;41676;44.610;44.078;2023-03-13T22:12:59;10.10;;;4.70;;
55756;SDS011;41676;44.610;44.078;2023-03-13T22:18:00;5.03;;;3.90;;
55756;SDS011;41676;44.610;44.078;2023-03-13T22:23:01;4.93;;;2.90;;
55756;SDS011;41676;44.610;44.078;2023-03-13T22:28:01;4.53;;;3.20;;
55756;SDS011;41676;44.610;44.078;2023-03-13T22:33:02;5.63;;;3.03;;
55756;SDS011;41676;44.610;44.078;2023-03-13T22:38:05;4.63;;;3.17;;
55756;SDS011;41676;44.610;44.078;2023-03-13T22:43:06;7.35;;;4.13;;
55756;SDS011;41676;44.610;44.078;2023-03-13T22:48:07;8.55;;;4.13;;
55756;SDS011;41676;44.610;44.078;2023-03-13T22:53:08;5.20;;;3.63;;
55756;SDS011;41676;44.610;44.078;2023-03-13T22:58:09;4.18;;;2.85;;
55756;SDS011;41676;44.610;44.078;2023-03-13T23:03:10;4.57;;;2.80;;
55756;SDS011;41676;44.610;44.078;2023-03-13T23:08:10;4.40;;;3.13;;
55756;SDS011;41676;44.610;44.078;2023-03-13T23:13:11;4.70;;;3.17;;
55756;SDS011;41676;44.610;44.078;2023-03-13T23:18:13;4.97;;;3.00;;
55756;SDS011;41676;44.610;44.078;2023-03-13T23:23:13;5.18;;;2.95;;
55756;SDS011;41676;44.610;44.078;2023-03-13T23:28:14;3.55;;;2.70;;
55756;SDS011;41676;44.610;44.078;2023-03-13T23:33:15;4.70;;;2.55;;
55756;SDS011;41676;44.610;44.078;2023-03-13T23:38:16;5.10;;;2.70;;
55756;SDS011;41676;44.610;44.078;2023-03-13T23:43:22;7.05;;;2.95;;
55756;SDS011;41676;44.610;44.078;2023-03-13T23:48:23;5.10;;;2.95;;
55756;SDS011;41676;44.610;44.078;2023-03-13T23:53:24;4.72;;;2.95;;
55756;SDS011;41676;44.610;44.078;2023-03-13T23:58:25;3.85;;;2.78;;
